createdAt,value
2018-05-02T00:01:23.122Z,62.70
2018-05-02T00:03:50.636Z,61.40
2018-05-02T00:06:18.177Z,61.10
2018-05-02T00:08:45.707Z,62.50
2018-05-02T00:11:13.319Z,62.40
2018-05-02T00:13:41.588Z,62.30
2018-05-02T00:16:09.922Z,64.20
2018-05-02T00:18:37.432Z,63.60
2018-05-02T00:21:04.933Z,64.60
2018-05-02T00:23:32.483Z,65.60
2018-05-02T00:25:59.998Z,65.70
2018-05-02T00:28:27.548Z,65.80
2018-05-02T00:30:55.048Z,66.40
2018-05-02T00:33:22.594Z,67.00
2018-05-02T00:35:50.104Z,67.70
2018-05-02T00:38:18.399Z,67.90
2018-05-02T00:40:45.908Z,67.80
2018-05-02T00:43:13.452Z,67.20
2018-05-02T00:45:40.971Z,67.00
2018-05-02T00:48:08.524Z,68.00
2018-05-02T00:50:36.036Z,68.00
2018-05-02T00:53:03.580Z,67.50
2018-05-02T00:55:31.860Z,68.30
2018-05-02T00:57:59.420Z,68.30
2018-05-02T01:00:26.915Z,68.50
2018-05-02T01:02:54.474Z,68.00
2018-05-02T01:05:21.975Z,67.40
2018-05-02T01:07:49.482Z,68.10
2018-05-02T01:10:17.037Z,68.10
2018-05-02T01:12:44.532Z,68.10
2018-05-02T01:15:12.095Z,68.80
2018-05-02T01:17:39.595Z,68.50
2018-05-02T01:20:07.155Z,68.80
2018-05-02T01:22:34.655Z,68.90
2018-05-02T01:25:02.199Z,69.50
2018-05-02T01:27:29.703Z,69.50
2018-05-02T01:29:57.239Z,69.40
2018-05-02T01:32:25.507Z,69.80
2018-05-02T01:34:53.043Z,69.70
2018-05-02T01:37:20.555Z,70.30
2018-05-02T01:39:48.097Z,70.20
2018-05-02T01:42:15.603Z,69.70
2018-05-02T01:44:43.152Z,70.00
2018-05-02T01:47:10.656Z,70.30
2018-05-02T01:49:38.199Z,70.30
2018-05-02T01:52:05.704Z,69.90
2018-05-02T01:54:33.244Z,70.50
2018-05-02T01:57:00.812Z,69.90
2018-05-02T01:59:28.319Z,69.70
2018-05-02T02:01:55.852Z,70.10
2018-05-02T02:04:23.371Z,70.50
2018-05-02T02:06:50.912Z,69.90
2018-05-02T02:09:18.406Z,69.40
2018-05-02T02:11:45.944Z,69.30
2018-05-02T02:14:13.450Z,69.30
2018-05-02T02:16:41.002Z,69.50
2018-05-02T02:19:08.508Z,70.10
2018-05-02T02:21:36.051Z,70.60
2018-05-02T02:24:03.553Z,70.10
2018-05-02T02:26:31.088Z,70.20
2018-05-02T02:28:58.616Z,70.80
2018-05-02T02:31:26.160Z,71.40
2018-05-02T02:33:54.483Z,71.80
2018-05-02T02:36:22.002Z,71.80
2018-05-02T02:38:49.516Z,72.40
2018-05-02T02:41:17.078Z,72.90
2018-05-02T02:43:44.600Z,72.90
2018-05-02T02:46:12.159Z,73.00
2018-05-02T02:48:39.671Z,72.80
2018-05-02T02:51:07.226Z,73.90
2018-05-02T02:53:34.726Z,75.00
2018-05-02T02:56:03.004Z,74.20
2018-05-02T02:58:30.552Z,74.20
2018-05-02T03:00:58.071Z,74.20
2018-05-02T03:03:25.609Z,74.40
2018-05-02T03:05:53.107Z,74.30
2018-05-02T03:08:20.645Z,74.60
2018-05-02T03:10:48.142Z,74.70
2018-05-02T03:13:16.440Z,75.30
2018-05-02T03:15:43.996Z,75.10
2018-05-02T03:18:11.535Z,75.70
2018-05-02T03:20:39.055Z,76.20
2018-05-02T03:23:06.610Z,76.30
2018-05-02T03:25:34.897Z,76.30
2018-05-02T03:28:02.529Z,76.10
2018-05-02T03:30:30.031Z,76.20
2018-05-02T03:32:57.571Z,76.30
2018-05-02T03:35:25.083Z,76.40
2018-05-02T03:37:52.631Z,76.90
2018-05-02T03:40:20.919Z,77.40
2018-05-02T03:42:49.232Z,77.10
2018-05-02T03:45:16.741Z,77.10
2018-05-02T03:47:44.311Z,77.40
2018-05-02T03:50:12.592Z,78.80
2018-05-02T03:52:40.871Z,77.50
2018-05-02T03:55:09.179Z,77.20
2018-05-02T03:57:36.695Z,77.20
2018-05-02T04:00:15.972Z,77.50
2018-05-02T04:03:06.163Z,77.40
2018-05-02T04:05:45.332Z,77.70
2018-05-02T04:08:12.875Z,78.50
2018-05-02T04:10:40.384Z,78.80
2018-05-02T04:13:08.651Z,77.90
2018-05-02T04:15:36.967Z,77.90
2018-05-02T04:18:04.494Z,77.90
2018-05-02T04:20:32.038Z,78.20
2018-05-02T04:23:00.316Z,78.70
2018-05-02T04:25:27.871Z,78.70
2018-05-02T04:27:55.383Z,79.20
2018-05-02T04:30:22.916Z,79.50
2018-05-02T04:32:50.432Z,80.30
2018-05-02T04:35:17.975Z,79.70
2018-05-02T04:37:45.491Z,79.60
2018-05-02T04:40:13.023Z,80.20
2018-05-02T04:42:40.535Z,79.60
2018-05-02T04:45:08.144Z,79.30
2018-05-02T04:47:35.652Z,79.00
2018-05-02T04:50:03.159Z,78.90
2018-05-02T04:52:30.714Z,78.70
2018-05-02T04:54:58.249Z,78.70
2018-05-02T04:57:25.797Z,78.30
2018-05-02T04:59:53.311Z,78.60
2018-05-02T05:02:20.879Z,78.80
2018-05-02T05:04:49.165Z,78.90
2018-05-02T05:07:16.749Z,78.80
2018-05-02T05:09:44.270Z,79.00
2018-05-02T05:12:11.838Z,79.40
2018-05-02T05:14:39.334Z,79.40
2018-05-02T05:17:06.877Z,79.70
2018-05-02T05:19:34.392Z,79.40
2018-05-02T05:22:01.933Z,78.30
2018-05-02T05:24:29.439Z,76.50
2018-05-02T05:26:57.002Z,76.60
2018-05-02T05:29:24.523Z,76.60
2018-05-02T05:31:52.064Z,76.50
2018-05-02T05:34:19.563Z,76.30
2018-05-02T05:36:47.071Z,76.00
2018-05-02T05:39:15.391Z,76.30
2018-05-02T05:41:43.663Z,76.10
2018-05-02T05:44:11.955Z,76.00
2018-05-02T05:46:39.463Z,76.00
2018-05-02T05:49:07.788Z,75.30
2018-05-02T05:51:35.311Z,75.30
2018-05-02T05:54:02.879Z,75.10
2018-05-02T05:56:30.391Z,75.30
2018-05-02T05:58:57.961Z,75.10
2018-05-02T06:01:25.467Z,75.80
2018-05-02T06:03:53.044Z,75.00
2018-05-02T06:06:21.328Z,73.20
2018-05-02T06:08:48.871Z,73.20
2018-05-02T06:11:16.383Z,72.90
2018-05-02T06:13:43.923Z,72.30
2018-05-02T06:16:11.440Z,72.00
2018-05-02T06:18:38.999Z,72.00
2018-05-02T06:21:06.512Z,71.80
2018-05-02T06:23:34.940Z,72.40
2018-05-02T06:26:02.492Z,72.30
2018-05-02T06:28:30.057Z,72.10
2018-05-02T06:30:58.402Z,71.30
2018-05-02T06:33:25.945Z,71.20
2018-05-02T06:35:53.520Z,71.30
2018-05-02T06:38:21.090Z,70.50
2018-05-02T06:40:49.459Z,72.20
2018-05-02T06:43:17.020Z,72.20
2018-05-02T06:45:44.642Z,71.70
2018-05-02T06:48:12.165Z,71.70
2018-05-02T06:50:39.744Z,70.60
2018-05-02T06:53:07.328Z,69.00
2018-05-02T06:55:34.952Z,68.50
2018-05-02T06:58:02.866Z,67.40
2018-05-02T07:00:30.434Z,67.80
2018-05-02T07:02:57.988Z,65.80
2018-05-02T07:05:25.653Z,66.30
2018-05-02T07:07:53.252Z,66.60
2018-05-02T07:10:20.878Z,67.30
2018-05-02T07:12:48.440Z,65.40
2018-05-02T07:15:16.024Z,65.50
2018-05-02T07:17:43.620Z,65.10
2018-05-02T07:20:11.215Z,64.90
2018-05-02T07:22:38.791Z,64.00
2018-05-02T07:25:06.328Z,63.20
2018-05-02T07:27:33.939Z,63.60
2018-05-02T07:30:01.495Z,64.00
2018-05-02T07:32:29.168Z,62.70
2018-05-02T07:34:56.684Z,61.60
2018-05-02T07:37:24.232Z,61.20
2018-05-02T07:39:52.638Z,62.30
2018-05-02T07:42:20.272Z,60.80
2018-05-02T07:44:47.840Z,61.20
2018-05-02T07:47:15.367Z,60.50
2018-05-02T07:49:42.996Z,59.50
2018-05-02T07:52:10.597Z,60.40
2018-05-02T07:54:38.176Z,59.30
2018-05-02T07:57:05.786Z,59.00
2018-05-02T07:59:33.360Z,58.90
2018-05-02T08:02:00.962Z,59.40
2018-05-02T08:04:28.522Z,58.70
2018-05-02T08:06:56.175Z,57.80
2018-05-02T08:09:23.756Z,58.00
2018-05-02T08:11:51.392Z,57.40
2018-05-02T08:14:19.006Z,58.30
2018-05-02T08:16:46.550Z,57.50
2018-05-02T08:19:14.121Z,56.80
2018-05-02T08:21:41.786Z,56.30
2018-05-02T08:24:09.393Z,57.30
2018-05-02T08:26:36.927Z,56.40
2018-05-02T08:29:05.324Z,53.80
2018-05-02T08:31:32.832Z,53.80
2018-05-02T08:34:01.122Z,54.40
2018-05-02T08:36:28.726Z,54.40
2018-05-02T08:38:57.073Z,52.90
2018-05-02T08:41:24.649Z,52.80
2018-05-02T08:43:52.191Z,53.20
2018-05-02T08:46:19.782Z,53.80
2018-05-02T08:48:47.343Z,53.20
2018-05-02T08:51:14.972Z,54.20
2018-05-02T08:53:43.282Z,51.70
2018-05-02T08:56:10.852Z,51.60
2018-05-02T08:58:38.396Z,51.20
2018-05-02T09:01:06.004Z,50.90
2018-05-02T09:03:33.573Z,51.20
2018-05-02T09:06:01.201Z,51.80
2018-05-02T09:08:28.819Z,51.20
2018-05-02T09:10:57.164Z,51.30
2018-05-02T09:13:25.507Z,51.40
2018-05-02T09:15:53.166Z,51.40
2018-05-02T09:18:20.724Z,51.40
2018-05-02T09:20:48.262Z,50.50
2018-05-02T09:23:16.644Z,49.40
2018-05-02T09:25:44.222Z,49.30
2018-05-02T09:28:11.791Z,49.20
2018-05-02T09:30:39.319Z,49.30
2018-05-02T09:33:06.894Z,50.00
2018-05-02T09:35:34.462Z,49.50
2018-05-02T09:38:02.040Z,49.70
2018-05-02T09:40:29.619Z,49.60
2018-05-02T09:42:57.305Z,49.50
2018-05-02T09:45:24.859Z,49.60
2018-05-02T09:47:52.420Z,50.50
2018-05-02T09:50:19.962Z,50.00
2018-05-02T09:52:47.708Z,50.00
2018-05-02T09:55:15.233Z,49.60
2018-05-02T09:57:42.815Z,50.10
2018-05-02T10:00:10.346Z,49.80
2018-05-02T10:02:38.049Z,50.70
2018-05-02T10:05:05.575Z,50.40
2018-05-02T10:07:33.117Z,50.60
2018-05-02T10:10:00.728Z,50.90
2018-05-02T10:12:28.277Z,51.10
2018-05-02T10:14:55.955Z,50.90
2018-05-02T10:17:23.511Z,50.60
2018-05-02T10:19:51.091Z,50.70
2018-05-02T10:22:18.666Z,49.90
2018-05-02T10:24:46.257Z,49.80
2018-05-02T10:27:14.533Z,49.50
2018-05-02T10:29:42.880Z,49.40
2018-05-02T10:32:13.003Z,49.30
2018-05-02T10:34:40.647Z,50.00
2018-05-02T10:37:08.214Z,50.60
2018-05-02T10:39:36.564Z,50.20
2018-05-02T10:42:04.171Z,50.20
2018-05-02T10:44:32.533Z,49.40
2018-05-02T10:47:00.051Z,49.40
2018-05-02T10:49:27.613Z,49.80
2018-05-02T10:51:55.191Z,48.90
2018-05-02T10:54:22.758Z,49.80
2018-05-02T10:56:50.336Z,49.80
2018-05-02T10:59:17.863Z,48.50
2018-05-02T11:01:45.446Z,49.00
2018-05-02T11:04:12.959Z,49.20
2018-05-02T11:06:40.559Z,49.80
2018-05-02T11:09:08.852Z,50.40
2018-05-02T11:11:36.413Z,50.40
2018-05-02T11:14:03.964Z,49.90
2018-05-02T11:16:32.323Z,49.00
2018-05-02T11:19:00.615Z,49.10
2018-05-02T11:21:28.196Z,49.00
2018-05-02T11:23:55.772Z,49.80
2018-05-02T11:26:23.360Z,49.20
2018-05-02T11:28:50.868Z,49.10
2018-05-02T11:31:18.408Z,48.60
2018-05-02T11:33:45.981Z,49.30
2018-05-02T11:36:13.515Z,49.30
2018-05-02T11:38:41.058Z,49.00
2018-05-02T11:41:08.616Z,49.10
2018-05-02T11:43:36.189Z,48.50
2018-05-02T11:46:03.867Z,48.00
2018-05-02T11:48:31.462Z,48.20
2018-05-02T11:50:59.028Z,47.40
2018-05-02T11:53:26.659Z,46.90
2018-05-02T11:55:54.239Z,46.40
2018-05-02T11:58:21.795Z,46.80
2018-05-02T12:00:50.093Z,46.50
2018-05-02T12:03:18.433Z,45.90
2018-05-02T12:05:45.988Z,45.80
2018-05-02T12:08:13.573Z,45.70
2018-05-02T12:10:41.110Z,45.60
2018-05-02T12:13:08.695Z,46.40
2018-05-02T12:15:37.009Z,46.60
2018-05-02T12:18:04.537Z,46.60
2018-05-02T12:20:32.097Z,46.60
2018-05-02T12:23:00.371Z,47.50
2018-05-02T12:25:28.773Z,47.10
2018-05-02T12:27:56.360Z,46.90
2018-05-02T12:30:23.919Z,47.30
2018-05-02T12:32:51.446Z,47.30
2018-05-02T12:35:19.794Z,48.50
2018-05-02T12:37:47.381Z,48.40
2018-05-02T12:40:14.956Z,48.50
2018-05-02T12:42:42.485Z,48.00
2018-05-02T12:45:10.839Z,49.40
2018-05-02T12:47:38.462Z,49.40
2018-05-02T12:50:06.051Z,49.50
2018-05-02T12:52:33.608Z,49.60
2018-05-02T12:55:01.221Z,49.60
2018-05-02T12:57:28.798Z,49.90
2018-05-02T12:59:56.377Z,49.80
2018-05-02T13:02:23.932Z,48.40
2018-05-02T13:04:51.506Z,48.30
2018-05-02T13:07:19.064Z,50.10
2018-05-02T13:09:47.486Z,52.10
2018-05-02T13:12:15.085Z,52.00
2018-05-02T13:14:42.635Z,50.60
2018-05-02T13:17:10.241Z,50.20
2018-05-02T13:19:37.789Z,50.80
2018-05-02T13:22:05.377Z,50.90
2018-05-02T13:24:33.731Z,51.00
2018-05-02T13:27:01.277Z,51.00
2018-05-02T13:29:28.783Z,51.20
2018-05-02T13:31:56.323Z,51.70
2018-05-02T13:34:24.589Z,52.50
2018-05-02T13:36:52.115Z,52.40
2018-05-02T13:39:20.401Z,50.80
2018-05-02T13:41:47.948Z,50.70
2018-05-02T13:44:15.457Z,50.90
2018-05-02T13:46:43.003Z,50.90
2018-05-02T13:49:10.517Z,50.90
2018-05-02T13:51:38.825Z,50.60
2018-05-02T13:54:06.359Z,50.50
2018-05-02T13:56:33.931Z,51.00
2018-05-02T13:59:01.435Z,50.50
2018-05-02T14:01:28.933Z,52.00
2018-05-02T14:03:56.485Z,51.00
2018-05-02T14:06:24.761Z,50.10
2018-05-02T14:08:53.071Z,50.30
2018-05-02T14:11:20.587Z,50.20
2018-05-02T14:13:48.169Z,50.50
2018-05-02T14:16:15.688Z,50.50
2018-05-02T14:18:43.249Z,51.30
2018-05-02T14:21:10.776Z,52.30
2018-05-02T14:23:38.377Z,52.00
2018-05-02T14:26:05.986Z,51.30
2018-05-02T14:28:33.589Z,51.40
2018-05-02T14:31:01.144Z,51.90
2018-05-02T14:33:28.713Z,52.40
2018-05-02T14:35:57.061Z,53.00
2018-05-02T14:38:24.779Z,52.90
2018-05-02T14:40:52.322Z,53.90
2018-05-02T14:43:20.017Z,53.60
2018-05-02T14:45:47.585Z,53.90
2018-05-02T14:48:15.123Z,54.10
2018-05-02T14:50:42.714Z,54.90
2018-05-02T14:53:10.299Z,55.50
2018-05-02T14:55:37.852Z,55.10
2018-05-02T14:58:05.458Z,55.80
2018-05-02T15:00:33.023Z,55.40
2018-05-02T15:03:01.337Z,56.20
2018-05-02T15:05:28.987Z,56.10
2018-05-02T15:07:56.538Z,55.50
2018-05-02T15:10:24.144Z,55.40
2018-05-02T15:12:51.691Z,55.30
2018-05-02T15:15:19.299Z,55.20
2018-05-02T15:17:47.683Z,55.50
2018-05-02T15:20:15.280Z,55.40
2018-05-02T15:22:42.837Z,55.50
2018-05-02T15:25:10.492Z,56.90
2018-05-02T15:27:38.073Z,56.40
2018-05-02T15:30:05.680Z,55.50
2018-05-02T15:32:33.322Z,55.10
2018-05-02T15:35:00.946Z,55.80
2018-05-02T15:37:28.534Z,55.50
2018-05-02T15:39:56.132Z,55.60
2018-05-02T15:42:23.742Z,55.20
2018-05-02T15:44:51.328Z,56.00
2018-05-02T15:47:18.953Z,55.80
2018-05-02T15:49:46.576Z,55.70
2018-05-02T15:52:15.283Z,56.20
2018-05-02T15:54:42.887Z,56.10
2018-05-02T15:57:10.474Z,56.20
2018-05-02T15:59:38.057Z,56.60
2018-05-02T16:02:05.705Z,56.90
2018-05-02T16:04:33.999Z,57.40
2018-05-02T16:07:01.638Z,57.40
2018-05-02T16:09:29.729Z,57.70
2018-05-02T16:11:58.034Z,58.20
2018-05-02T16:14:25.591Z,58.10
2018-05-02T16:16:53.165Z,58.30
2018-05-02T16:19:20.763Z,59.50
2018-05-02T16:21:49.151Z,60.60
2018-05-02T16:24:16.714Z,60.60
2018-05-02T16:26:45.051Z,59.50
2018-05-02T16:29:12.555Z,59.40
2018-05-02T16:31:40.143Z,59.50
2018-05-02T16:34:07.715Z,59.50
2018-05-02T16:36:35.232Z,59.50
2018-05-02T16:39:03.564Z,66.10
2018-05-02T16:41:31.080Z,66.00
2018-05-02T16:43:58.632Z,68.20
2018-05-02T16:46:26.169Z,71.20
2018-05-02T16:48:53.743Z,73.30
2018-05-02T16:51:21.265Z,74.50
2018-05-02T16:53:49.056Z,76.10
2018-05-02T16:56:16.594Z,76.90
2018-05-02T16:58:44.139Z,77.50
2018-05-02T17:01:11.640Z,77.20
2018-05-02T17:03:39.973Z,77.30
2018-05-02T17:06:08.251Z,76.10
2018-05-02T17:08:35.810Z,76.00
2018-05-02T17:11:03.333Z,74.70
2018-05-02T17:13:30.856Z,72.90
2018-05-02T17:15:58.405Z,73.30
2018-05-02T17:18:25.904Z,73.90
2018-05-02T17:20:53.453Z,75.00
2018-05-02T17:23:21.738Z,75.20
2018-05-02T17:25:49.279Z,75.20
2018-05-02T17:28:16.795Z,76.40
2018-05-02T17:30:44.339Z,77.20
2018-05-02T17:33:11.852Z,76.60
2018-05-02T17:35:39.437Z,76.80
2018-05-02T17:38:06.965Z,78.80
2018-05-02T17:40:34.495Z,78.70
2018-05-02T17:43:02.019Z,79.40
2018-05-02T17:45:29.579Z,80.10
2018-05-02T17:47:57.093Z,81.20
2018-05-02T17:50:24.640Z,80.00
2018-05-02T17:52:53.025Z,78.70
2018-05-02T17:55:20.502Z,78.70
2018-05-02T17:57:48.069Z,77.80
2018-05-02T18:00:15.571Z,76.40
2018-05-02T18:02:43.117Z,77.50
2018-05-02T18:05:10.640Z,78.70
2018-05-02T18:07:38.204Z,79.60
2018-05-02T18:10:05.721Z,80.20
2018-05-02T18:12:33.276Z,80.40
2018-05-02T18:15:00.802Z,81.30
2018-05-02T18:17:28.370Z,81.40
2018-05-02T18:19:55.914Z,81.00
2018-05-02T18:22:23.481Z,81.40
2018-05-02T18:24:51.773Z,81.50
2018-05-02T18:27:19.306Z,81.50
2018-05-02T18:29:46.869Z,81.60
2018-05-02T18:32:15.169Z,81.80
2018-05-02T18:34:42.736Z,81.60
2018-05-02T18:37:10.248Z,80.60
2018-05-02T18:39:37.869Z,80.10
2018-05-02T18:42:05.401Z,79.40
2018-05-02T18:44:32.949Z,79.60
2018-05-02T18:47:01.311Z,78.70
2018-05-02T18:49:28.844Z,78.60
2018-05-02T18:51:56.379Z,78.40
2018-05-02T18:54:23.946Z,78.80
2018-05-02T18:56:51.470Z,78.10
2018-05-02T18:59:19.073Z,79.20
2018-05-02T19:01:46.645Z,79.40
2018-05-02T19:04:15.477Z,79.80
2018-05-02T19:06:43.005Z,79.60
2018-05-02T19:09:10.587Z,80.50
2018-05-02T19:11:38.108Z,81.10
2018-05-02T19:14:05.683Z,82.00
2018-05-02T19:16:33.187Z,83.20
2018-05-02T19:19:06.417Z,84.00
2018-05-02T19:21:33.943Z,84.30
2018-05-02T19:24:01.545Z,84.70
2018-05-02T19:26:34.817Z,85.10
2018-05-02T19:29:02.406Z,86.00
2018-05-02T19:31:35.569Z,87.40
2018-05-02T19:34:03.157Z,88.40
2018-05-02T19:36:30.714Z,87.90
2018-05-02T19:38:58.230Z,89.30
2018-05-02T19:41:31.360Z,88.80
2018-05-02T19:44:04.334Z,90.40
2018-05-02T19:46:31.921Z,90.10
2018-05-02T19:48:59.451Z,89.20
2018-05-02T19:51:32.694Z,89.70
2018-05-02T19:54:00.987Z,88.00
2018-05-02T19:56:28.901Z,87.80
2018-05-02T19:58:56.422Z,88.10
2018-05-02T20:01:29.571Z,88.50
2018-05-02T20:03:57.089Z,89.30
2018-05-02T20:06:24.696Z,89.90
2018-05-02T20:08:57.796Z,90.10
2018-05-02T20:11:31.809Z,90.40
2018-05-02T20:14:11.506Z,90.30
2018-05-02T20:16:39.847Z,87.80
2018-05-02T20:19:07.397Z,87.70
2018-05-02T20:21:34.959Z,88.70
2018-05-02T20:24:03.251Z,89.70
2018-05-02T20:26:30.796Z,89.60
2018-05-02T20:28:58.327Z,90.00
2018-05-02T20:31:25.891Z,90.60
2018-05-02T20:33:53.404Z,91.00
2018-05-02T20:36:20.921Z,91.40
2018-05-02T20:38:49.231Z,91.50
2018-05-02T20:41:16.771Z,91.40
2018-05-02T20:43:45.080Z,91.50
2018-05-02T20:46:12.884Z,91.50
2018-05-02T20:48:40.436Z,91.80
2018-05-02T20:51:08.164Z,92.40
2018-05-02T20:53:35.742Z,92.40
2018-05-02T20:56:03.250Z,92.20
2018-05-02T20:58:31.563Z,91.80
2018-05-02T21:00:59.085Z,91.80
2018-05-02T21:03:27.410Z,92.00
2018-05-02T21:05:54.920Z,91.60
2018-05-02T21:08:23.283Z,92.00
2018-05-02T21:10:50.814Z,92.00
2018-05-02T21:13:19.114Z,92.40
2018-05-02T21:15:46.614Z,92.40
2018-05-02T21:18:15.153Z,92.70
2018-05-02T21:20:43.910Z,92.70
2018-05-02T21:23:11.435Z,92.60
2018-05-02T21:25:38.974Z,92.30
2018-05-02T21:28:06.486Z,92.20
2018-05-02T21:30:34.800Z,92.10
2018-05-02T21:33:02.342Z,92.10
2018-05-02T21:35:29.916Z,92.30
2018-05-02T21:37:57.442Z,92.10
2018-05-02T21:40:24.991Z,92.10
2018-05-02T21:42:52.494Z,92.30
2018-05-02T21:45:20.039Z,92.40
2018-05-02T21:47:47.637Z,92.50
2018-05-02T21:50:15.102Z,92.60
2018-05-02T21:52:43.381Z,92.80
2018-05-02T21:55:10.936Z,92.70
2018-05-02T21:57:38.479Z,92.70
2018-05-02T22:00:06.756Z,92.80
2018-05-02T22:02:34.296Z,92.70
2018-05-02T22:05:01.815Z,92.90
2018-05-02T22:07:29.376Z,93.00
2018-05-02T22:09:56.892Z,93.10
2018-05-02T22:12:24.432Z,93.00
2018-05-02T22:14:51.943Z,92.90
2018-05-02T22:17:19.479Z,92.80
2018-05-02T22:19:46.997Z,92.80
2018-05-02T22:22:14.545Z,92.80
2018-05-02T22:24:42.052Z,92.80
2018-05-02T22:27:09.600Z,92.90
2018-05-02T22:29:37.120Z,93.00
2018-05-02T22:32:04.684Z,93.00
2018-05-02T22:34:32.963Z,93.30
2018-05-02T22:37:00.484Z,93.30
2018-05-02T22:39:28.028Z,93.30
2018-05-02T22:41:55.536Z,93.30
2018-05-02T22:44:23.084Z,93.40
2018-05-02T22:46:50.596Z,93.40
2018-05-02T22:49:18.160Z,93.40
2018-05-02T22:51:45.776Z,93.60
2018-05-02T22:54:13.332Z,93.60
2018-05-02T22:56:40.858Z,93.40
2018-05-02T22:59:08.409Z,93.40
2018-05-02T23:01:36.682Z,93.70
2018-05-02T23:04:04.980Z,93.70
2018-05-02T23:06:32.495Z,93.70
2018-05-02T23:09:00.026Z,93.70
2018-05-02T23:11:27.549Z,93.70
2018-05-02T23:13:55.084Z,93.70
2018-05-02T23:16:23.382Z,93.90
2018-05-02T23:18:50.956Z,93.80
2018-05-02T23:21:18.460Z,93.90
2018-05-02T23:23:45.972Z,94.00
2018-05-02T23:26:13.511Z,94.00
2018-05-02T23:28:41.035Z,94.00
2018-05-02T23:31:08.591Z,94.00
2018-05-02T23:33:36.135Z,93.90
2018-05-02T23:36:03.700Z,93.90
2018-05-02T23:38:31.212Z,93.90
2018-05-02T23:40:58.754Z,93.90
2018-05-02T23:43:26.267Z,93.80
2018-05-02T23:45:53.815Z,93.80
2018-05-02T23:48:21.336Z,94.00
2018-05-02T23:50:48.902Z,94.20
2018-05-02T23:53:17.179Z,94.10
2018-05-02T23:55:45.504Z,94.20
2018-05-02T23:58:13.019Z,94.20
